createdAt,value
2022-08-22T00:02:04.384Z,4.03
2022-08-22T00:07:12.216Z,4.02
2022-08-22T00:12:20.088Z,4.03
2022-08-22T00:17:26.626Z,4.02
2022-08-22T00:22:34.571Z,4.02
2022-08-22T00:27:42.622Z,4.03
2022-08-22T00:32:50.314Z,4.02
2022-08-22T00:37:57.979Z,4.03
2022-08-22T00:44:36.699Z,4.02
2022-08-22T00:49:43.373Z,4.03
2022-08-22T00:54:51.102Z,4.03
2022-08-22T00:59:58.786Z,4.02
2022-08-22T01:05:06.841Z,4.02
2022-08-22T01:10:15.260Z,4.01
2022-08-22T01:15:23.178Z,4.02
2022-08-22T01:20:31.284Z,4.02
2022-08-22T01:25:37.843Z,4.01
2022-08-22T01:30:44.849Z,4.01
2022-08-22T01:35:53.045Z,4.01
2022-08-22T01:41:01.824Z,4.01
2022-08-22T01:46:10.853Z,3.98
2022-08-22T01:51:19.129Z,4.01
2022-08-22T01:56:27.167Z,4.02
2022-08-22T02:01:34.462Z,4.01
2022-08-22T02:06:42.362Z,4.02
2022-08-22T02:11:49.990Z,4.01
2022-08-22T02:16:58.329Z,4.00
2022-08-22T02:22:05.679Z,4.00
2022-08-22T02:27:13.521Z,4.01
2022-08-22T02:32:20.695Z,4.01
2022-08-22T02:37:29.047Z,4.00
2022-08-22T02:42:37.525Z,4.01
2022-08-22T02:47:45.302Z,4.00
2022-08-22T02:52:53.526Z,4.01
2022-08-22T02:58:01.776Z,4.00
2022-08-22T03:03:09.591Z,4.01
2022-08-22T03:08:17.521Z,4.00
2022-08-22T03:13:33.577Z,4.01
2022-08-22T03:18:42.005Z,3.99
2022-08-22T03:23:48.698Z,4.00
2022-08-22T03:30:28.077Z,3.99
2022-08-22T03:35:34.007Z,4.00
2022-08-22T03:40:41.635Z,4.00
2022-08-22T03:45:49.509Z,4.00
2022-08-22T03:50:57.532Z,3.99
2022-08-22T03:56:12.396Z,4.00
2022-08-22T04:01:19.830Z,3.99
2022-08-22T04:06:26.946Z,4.00
2022-08-22T04:11:34.618Z,3.99
2022-08-22T04:16:42.518Z,4.01
2022-08-22T04:21:49.660Z,3.99
2022-08-22T04:26:57.652Z,3.99
2022-08-22T04:32:06.122Z,3.99
2022-08-22T04:37:13.215Z,4.00
2022-08-22T04:42:20.725Z,3.99
2022-08-22T04:47:28.218Z,3.98
2022-08-22T04:52:35.995Z,3.99
2022-08-22T04:57:43.988Z,3.99
2022-08-22T05:02:52.318Z,3.98
2022-08-22T05:08:00.394Z,3.98
2022-08-22T05:13:08.887Z,3.98
2022-08-22T05:18:17.139Z,3.99
2022-08-22T05:23:24.423Z,3.98
2022-08-22T05:28:32.623Z,3.99
2022-08-22T05:33:41.211Z,3.98
2022-08-22T05:38:49.403Z,3.98
2022-08-22T05:43:57.527Z,3.98
2022-08-22T05:49:06.003Z,3.99
2022-08-22T05:54:13.340Z,3.98
2022-08-22T05:59:21.178Z,3.98
2022-08-22T06:04:29.601Z,3.99
2022-08-22T06:09:37.690Z,3.98
2022-08-22T06:14:45.410Z,3.99
2022-08-22T06:19:53.811Z,3.98
2022-08-22T06:25:03.782Z,3.99
2022-08-22T06:30:10.925Z,3.98
2022-08-22T06:35:18.485Z,3.99
2022-08-22T06:40:26.407Z,4.00
2022-08-22T06:45:34.412Z,3.99
2022-08-22T06:50:43.379Z,3.99
2022-08-22T06:55:52.498Z,3.99
2022-08-22T07:01:00.087Z,3.99
2022-08-22T07:06:08.726Z,4.00
2022-08-22T07:11:15.432Z,4.00
2022-08-22T07:16:23.445Z,4.00
2022-08-22T07:21:32.606Z,3.99
2022-08-22T07:26:39.664Z,4.00
2022-08-22T07:31:47.422Z,4.00
2022-08-22T07:36:55.768Z,4.00
2022-08-22T07:42:03.511Z,4.00
2022-08-22T07:47:11.615Z,4.01
2022-08-22T07:52:18.783Z,4.02
2022-08-22T07:57:28.349Z,4.00
2022-08-22T08:02:35.741Z,4.00
2022-08-22T08:07:44.008Z,4.01
2022-08-22T08:12:51.491Z,4.00
2022-08-22T08:17:57.317Z,3.99
2022-08-22T08:23:05.650Z,4.00
2022-08-22T08:28:14.169Z,4.00
2022-08-22T08:33:21.760Z,4.01
2022-08-22T08:38:28.945Z,4.01
2022-08-22T08:43:36.409Z,4.01
2022-08-22T08:48:44.340Z,4.02
2022-08-22T08:53:52.626Z,4.03
2022-08-22T08:59:00.055Z,4.02
2022-08-22T09:04:08.410Z,4.02
2022-08-22T09:09:16.374Z,4.03
2022-08-22T09:14:23.907Z,4.03
2022-08-22T09:19:32.087Z,4.04
2022-08-22T09:24:39.920Z,4.04
2022-08-22T09:29:47.668Z,4.03
2022-08-22T09:34:54.294Z,4.03
2022-08-22T09:40:02.072Z,4.04
2022-08-22T09:45:10.487Z,4.03
2022-08-22T09:50:18.010Z,4.03
2022-08-22T09:55:25.686Z,4.05
2022-08-22T10:00:34.137Z,4.05
2022-08-22T10:05:41.489Z,4.04
2022-08-22T10:10:49.179Z,4.06
2022-08-22T10:15:56.630Z,4.04
2022-08-22T10:21:04.537Z,4.06
2022-08-22T10:26:52.427Z,4.05
2022-08-22T10:32:00.215Z,4.06
2022-08-22T10:37:06.787Z,4.05
2022-08-22T10:42:14.622Z,4.05
2022-08-22T10:47:21.828Z,4.05
2022-08-22T10:52:29.864Z,4.05
2022-08-22T10:57:36.872Z,4.05
2022-08-22T11:02:44.098Z,4.05
2022-08-22T11:07:51.714Z,4.06
2022-08-22T11:12:58.967Z,4.05
2022-08-22T11:18:15.515Z,4.06
2022-08-22T11:23:23.099Z,4.05
2022-08-22T11:28:30.650Z,4.06
2022-08-22T11:33:39.114Z,4.06
2022-08-22T11:38:47.762Z,4.07
2022-08-22T11:43:56.778Z,4.07
2022-08-22T11:49:04.576Z,4.07
2022-08-22T11:54:12.484Z,4.07
2022-08-22T11:59:20.395Z,4.07
2022-08-22T12:04:28.248Z,4.07
2022-08-22T12:09:34.954Z,4.08
2022-08-22T12:14:43.190Z,4.09
2022-08-22T12:19:51.477Z,4.08
2022-08-22T12:25:00.079Z,4.09
2022-08-22T12:30:08.731Z,4.09
2022-08-22T12:35:15.449Z,4.10
2022-08-22T12:40:23.945Z,4.09
2022-08-22T12:45:31.032Z,4.09
2022-08-22T12:50:39.138Z,4.09
2022-08-22T12:55:46.146Z,4.09
2022-08-22T13:00:54.623Z,4.08
2022-08-22T13:06:03.617Z,4.09
2022-08-22T13:11:11.739Z,4.09
2022-08-22T13:16:19.833Z,4.10
2022-08-22T13:21:28.404Z,4.10
2022-08-22T13:26:37.530Z,4.08
2022-08-22T13:31:44.571Z,4.09
2022-08-22T13:36:52.721Z,4.10
2022-08-22T13:42:00.529Z,4.09
2022-08-22T13:47:08.172Z,4.10
2022-08-22T13:52:14.956Z,4.10
2022-08-22T13:57:23.290Z,4.10
2022-08-22T14:02:30.626Z,4.09
2022-08-22T14:07:37.802Z,4.10
2022-08-22T14:12:45.658Z,4.10
2022-08-22T14:17:54.086Z,4.10
2022-08-22T14:23:00.531Z,4.10
2022-08-22T14:28:09.676Z,4.11
2022-08-22T14:33:17.527Z,4.10
2022-08-22T14:38:24.981Z,4.10
2022-08-22T14:43:33.207Z,4.11
2022-08-22T14:48:41.003Z,4.11
2022-08-22T14:53:47.676Z,4.10
2022-08-22T14:58:54.943Z,4.10
2022-08-22T15:04:03.669Z,4.11
2022-08-22T15:09:10.090Z,4.11
2022-08-22T15:14:18.965Z,4.11
2022-08-22T15:19:26.669Z,4.10
2022-08-22T15:24:34.257Z,4.11
2022-08-22T15:29:42.489Z,4.12
2022-08-22T15:34:50.238Z,4.11
2022-08-22T15:39:57.681Z,4.12
2022-08-22T15:45:04.297Z,4.12
2022-08-22T15:50:11.421Z,4.12
2022-08-22T15:55:19.070Z,4.11
2022-08-22T16:00:27.597Z,4.11
2022-08-22T16:05:34.305Z,4.10
2022-08-22T16:10:41.497Z,4.11
2022-08-22T16:15:48.098Z,4.12
2022-08-22T16:20:56.705Z,4.10
2022-08-22T16:26:05.532Z,4.11
2022-08-22T16:31:19.439Z,4.10
2022-08-22T16:36:27.070Z,4.10
2022-08-22T16:41:33.853Z,4.11
2022-08-22T16:46:43.107Z,4.11
2022-08-22T16:51:49.921Z,4.10
2022-08-22T16:56:57.187Z,4.11
2022-08-22T17:02:04.475Z,4.10
2022-08-22T17:07:13.368Z,4.10
2022-08-22T17:12:20.735Z,4.10
2022-08-22T17:17:27.289Z,4.11
2022-08-22T17:22:35.318Z,4.09
2022-08-22T17:27:43.022Z,4.09
2022-08-22T17:32:50.140Z,4.09
2022-08-22T17:37:57.785Z,4.09
2022-08-22T17:43:06.331Z,4.11
2022-08-22T17:48:13.830Z,4.09
2022-08-22T17:53:21.323Z,4.10
2022-08-22T17:58:29.453Z,4.09
2022-08-22T18:03:37.292Z,4.10
2022-08-22T18:08:50.163Z,4.09
2022-08-22T18:13:56.895Z,4.09
2022-08-22T18:19:03.846Z,4.10
2022-08-22T18:24:11.130Z,4.10
2022-08-22T18:29:18.329Z,4.09
2022-08-22T18:34:25.524Z,4.08
2022-08-22T18:39:32.765Z,4.08
2022-08-22T18:44:41.044Z,4.09
2022-08-22T18:49:48.753Z,4.08
2022-08-22T18:54:56.883Z,4.08
2022-08-22T19:00:03.421Z,4.09
2022-08-22T19:05:12.060Z,4.08
2022-08-22T19:10:20.441Z,4.08
2022-08-22T19:15:26.972Z,4.08
2022-08-22T19:20:35.569Z,4.08
2022-08-22T19:25:43.263Z,4.08
2022-08-22T19:30:51.111Z,4.08
2022-08-22T19:35:58.334Z,4.08
2022-08-22T19:41:05.679Z,4.07
2022-08-22T19:46:13.567Z,4.07
2022-08-22T19:51:21.750Z,4.08
2022-08-22T19:56:29.236Z,4.08
2022-08-22T20:01:37.324Z,4.09
2022-08-22T20:06:45.507Z,4.08
2022-08-22T20:11:52.759Z,4.08
2022-08-22T20:17:01.176Z,4.08
2022-08-22T20:22:09.166Z,4.08
2022-08-22T20:27:17.183Z,4.07
2022-08-22T20:32:24.961Z,4.08
2022-08-22T20:37:32.889Z,4.07
2022-08-22T20:42:40.411Z,4.07
2022-08-22T20:47:48.865Z,4.07
2022-08-22T20:52:56.536Z,4.06
2022-08-22T20:58:03.784Z,4.07
2022-08-22T21:03:11.433Z,4.07
2022-08-22T21:08:19.145Z,4.07
2022-08-22T21:13:27.424Z,4.06
2022-08-22T21:18:36.085Z,4.06
2022-08-22T21:23:43.647Z,4.06
2022-08-22T21:28:51.418Z,4.07
2022-08-22T21:33:58.885Z,4.06
2022-08-22T21:39:07.262Z,4.06
2022-08-22T21:44:15.451Z,4.05
2022-08-22T21:49:22.122Z,4.06
2022-08-22T21:54:30.015Z,4.05
2022-08-22T21:59:38.297Z,4.05
2022-08-22T22:04:46.803Z,4.06
2022-08-22T22:09:54.774Z,4.06
2022-08-22T22:15:02.790Z,4.05
2022-08-22T22:20:09.811Z,4.06
2022-08-22T22:25:18.054Z,4.05
2022-08-22T22:30:26.334Z,4.05
2022-08-22T22:35:34.613Z,4.04
2022-08-22T22:40:43.864Z,4.05
2022-08-22T22:45:51.575Z,4.05
2022-08-22T22:50:58.805Z,4.05
2022-08-22T22:56:06.246Z,4.05
2022-08-22T23:01:14.066Z,4.04
2022-08-22T23:06:30.282Z,4.05
2022-08-22T23:11:37.628Z,4.05
2022-08-22T23:16:45.713Z,4.04
2022-08-22T23:21:53.542Z,4.05
2022-08-22T23:27:01.485Z,4.05
2022-08-22T23:32:08.597Z,4.05
2022-08-22T23:37:15.102Z,4.05
2022-08-22T23:42:23.025Z,4.04
2022-08-22T23:47:30.861Z,4.04
2022-08-22T23:52:38.010Z,4.04
2022-08-22T23:57:45.872Z,4.04
